Time;durP1;ratioP1;P1;durP2;ratioP2;P2;SDS_P1;SDS_P2;PMS_P1;PMS_P2;Temp;Humidity;BMP_temperature;BMP_pressure;BME280_temperature;BME280_humidity;BME280_pressure;Samples;Min_cycle;Max_cycle;Signal;HPM_P1;HPM_P2
2023/04/01 00:00:22;;;;;;;13.07;7.70;;;10.70;99.90;;;;;;5011054;28;20482;-76
2023/04/01 00:02:47;;;;;;;14.65;7.05;;;10.70;99.90;;;;;;5039581;28;20022;-77
2023/04/01 00:05:14;;;;;;;13.52;7.40;;;10.70;99.90;;;;;;4992924;28;20034;-75
2023/04/01 00:07:40;;;;;;;13.35;6.78;;;10.70;99.90;;;;;;5008793;28;20041;-80
2023/04/01 00:10:08;;;;;;;16.88;7.70;;;10.70;99.90;;;;;;5024909;28;20029;-78
2023/04/01 00:12:35;;;;;;;13.55;7.18;;;10.70;99.90;;;;;;5006285;28;20047;-75
2023/04/01 00:15:02;;;;;;;13.40;6.28;;;10.70;99.90;;;;;;5004693;28;20032;-77
2023/04/01 00:17:27;;;;;;;12.82;6.05;;;10.70;99.90;;;;;;5010477;28;20401;-76
2023/04/01 00:19:57;;;;;;;12.63;6.38;;;10.70;99.90;;;;;;5010610;28;20038;-76
2023/04/01 00:22:24;;;;;;;11.00;6.10;;;10.70;99.90;;;;;;5007279;28;20099;-78
2023/04/01 00:24:50;;;;;;;13.48;6.38;;;10.70;99.90;;;;;;4992020;28;20108;-79
2023/04/01 00:27:16;;;;;;;12.07;5.80;;;10.70;99.90;;;;;;5010604;28;20404;-79
2023/04/01 00:29:43;;;;;;;15.15;6.68;;;10.70;99.90;;;;;;5006868;28;20034;-76
2023/04/01 00:32:09;;;;;;;16.02;6.70;;;10.70;99.90;;;;;;5009566;28;20029;-76
2023/04/01 00:34:34;;;;;;;13.38;6.88;;;10.70;99.90;;;;;;4990804;28;20022;-76
2023/04/01 00:37:00;;;;;;;15.18;7.63;;;10.70;99.90;;;;;;5006370;28;20088;-79
2023/04/01 00:39:33;;;;;;;14.15;7.47;;;10.70;99.90;;;;;;5010098;28;20026;-76
2023/04/01 00:41:59;;;;;;;13.27;7.13;;;10.60;99.90;;;;;;4992566;28;20041;-76
2023/04/01 00:44:32;;;;;;;13.73;7.30;;;10.60;99.90;;;;;;4989379;28;20041;-82
2023/04/01 00:46:58;;;;;;;12.02;6.75;;;10.70;99.90;;;;;;5006227;28;20041;-76
2023/04/01 00:49:29;;;;;;;13.93;7.15;;;10.60;99.90;;;;;;5005675;28;20204;-76
2023/04/01 00:52:01;;;;;;;9.77;6.47;;;10.60;99.90;;;;;;5040128;28;20041;-76
2023/04/01 00:54:29;;;;;;;16.63;7.40;;;10.60;99.90;;;;;;5008202;28;20049;-80
2023/04/01 00:57:16;;;;;;;14.85;7.22;;;10.60;99.90;;;;;;4991237;28;20042;-78
2023/04/01 00:59:46;;;;;;;13.75;7.30;;;10.60;99.90;;;;;;5026145;28;20026;-78
2023/04/01 01:02:13;;;;;;;20.30;7.70;;;10.60;99.90;;;;;;4992074;28;20080;-77
2023/04/01 01:04:39;;;;;;;13.23;6.97;;;10.60;99.90;;;;;;5007021;28;20280;-78
2023/04/01 01:07:24;;;;;;;11.10;6.60;;;10.60;99.90;;;;;;5000418;28;20030;-78
2023/04/01 01:10:19;;;;;;;12.57;7.43;;;10.60;99.90;;;;;;4990165;28;20022;-77
2023/04/01 01:13:03;;;;;;;11.90;7.60;;;10.60;99.90;;;;;;5013736;28;20030;-77
2023/04/01 01:15:37;;;;;;;14.10;7.47;;;10.50;99.90;;;;;;4994652;28;20022;-75
2023/04/01 01:18:21;;;;;;;11.55;7.78;;;10.60;99.90;;;;;;5025281;28;20118;-80
2023/04/01 01:21:05;;;;;;;14.73;7.50;;;10.50;99.90;;;;;;5013429;28;20033;-78
2023/04/01 01:24:09;;;;;;;15.52;8.10;;;10.50;99.90;;;;;;5022366;28;20026;-79
2023/04/01 01:26:53;;;;;;;14.75;7.97;;;10.50;99.90;;;;;;5007438;28;20034;-79
2023/04/01 01:29:44;;;;;;;16.90;7.30;;;10.40;99.90;;;;;;5023123;28;20433;-76
2023/04/01 01:32:43;;;;;;;12.20;7.43;;;10.50;99.90;;;;;;5005839;28;20405;-75
2023/04/01 01:35:35;;;;;;;14.40;6.72;;;10.40;99.90;;;;;;5026516;28;20301;-75
2023/04/01 01:38:09;;;;;;;12.40;6.45;;;10.40;99.90;;;;;;5044540;28;20054;-78
2023/04/01 01:40:39;;;;;;;11.25;6.90;;;10.50;99.90;;;;;;5009867;28;20048;-77
2023/04/01 01:43:09;;;;;;;13.02;7.20;;;10.50;99.90;;;;;;5009881;28;20030;-78
2023/04/01 01:45:39;;;;;;;13.63;7.00;;;10.50;99.90;;;;;;5009993;28;20026;-78
2023/04/01 01:48:09;;;;;;;13.10;6.03;;;10.50;99.90;;;;;;5006513;28;20033;-78
2023/04/01 01:50:35;;;;;;;11.63;6.55;;;10.50;99.90;;;;;;5005386;28;20029;-75
2023/04/01 01:53:04;;;;;;;12.18;6.05;;;10.50;99.90;;;;;;5002866;28;20084;-76
2023/04/01 01:55:38;;;;;;;14.27;7.35;;;10.50;99.90;;;;;;4988391;28;20033;-76
2023/04/01 01:58:24;;;;;;;16.33;7.78;;;10.50;99.90;;;;;;4994861;28;20034;-75
2023/04/01 02:00:58;;;;;;;11.07;6.82;;;10.40;99.90;;;;;;5009483;28;20081;-76
2023/04/01 02:03:26;;;;;;;13.77;6.60;;;10.40;99.90;;;;;;5010381;28;20038;-79
2023/04/01 02:05:55;;;;;;;12.05;6.35;;;10.40;99.90;;;;;;5013048;28;20510;-79
2023/04/01 02:08:35;;;;;;;11.93;6.28;;;10.40;99.90;;;;;;5012599;28;20135;-78
2023/04/01 02:11:09;;;;;;;16.20;6.60;;;10.40;99.90;;;;;;5012899;28;20060;-77
2023/04/01 02:14:05;;;;;;;11.95;6.35;;;10.40;99.90;;;;;;5012253;28;20049;-77
2023/04/01 02:16:56;;;;;;;11.32;6.70;;;10.40;99.90;;;;;;4995245;28;20080;-79
2023/04/01 02:19:25;;;;;;;;;;;10.40;99.90;;;;;;5011634;28;20076;-77
2023/04/01 02:21:55;;;;;;;14.10;6.45;;;10.40;99.90;;;;;;5011526;28;20365;-78
2023/04/01 02:24:23;;;;;;;13.23;6.78;;;10.40;99.90;;;;;;5035575;28;20117;-82
2023/04/01 02:26:51;;;;;;;14.55;6.55;;;10.40;99.90;;;;;;5019622;28;20041;-79
2023/04/01 02:29:21;;;;;;;13.57;6.65;;;10.40;99.90;;;;;;5011553;28;20052;-79
2023/04/01 02:31:48;;;;;;;10.90;6.07;;;10.40;99.90;;;;;;5010762;28;20022;-80
2023/04/01 02:34:14;;;;;;;13.98;7.13;;;10.40;99.90;;;;;;5011434;28;20038;-80
2023/04/01 02:36:40;;;;;;;11.00;6.47;;;10.40;99.90;;;;;;4991705;28;20026;-76
2023/04/01 02:39:07;;;;;;;11.68;6.55;;;10.40;99.90;;;;;;5007791;28;20097;-76
2023/04/01 02:41:42;;;;;;;13.35;6.55;;;10.40;99.90;;;;;;5011232;28;20117;-76
2023/04/01 02:44:09;;;;;;;10.88;6.10;;;10.40;99.90;;;;;;5009586;28;20362;-76
2023/04/01 02:46:35;;;;;;;16.13;7.22;;;10.40;99.90;;;;;;4990541;28;20510;-75
2023/04/01 02:49:00;;;;;;;13.30;6.55;;;10.40;99.90;;;;;;5012257;28;20076;-76
2023/04/01 02:51:26;;;;;;;10.95;6.43;;;10.40;99.90;;;;;;5009147;28;20022;-80
2023/04/01 02:53:52;;;;;;;15.50;6.80;;;10.40;99.90;;;;;;4994590;28;20044;-76
2023/04/01 02:56:19;;;;;;;14.80;6.97;;;10.40;99.90;;;;;;5010354;28;20030;-76
2023/04/01 02:58:45;;;;;;;10.48;5.90;;;10.40;99.90;;;;;;5011264;28;20026;-78
2023/04/01 03:01:11;;;;;;;10.05;5.95;;;10.40;99.90;;;;;;5014586;28;20075;-77
2023/04/01 03:03:37;;;;;;;11.43;6.63;;;10.40;99.90;;;;;;5012184;28;20061;-77
2023/04/01 03:06:07;;;;;;;11.25;7.50;;;10.40;99.90;;;;;;5009115;28;20139;-79
2023/04/01 03:08:33;;;;;;;10.32;6.22;;;10.40;99.90;;;;;;5010933;28;20034;-78
2023/04/01 03:10:59;;;;;;;13.07;6.80;;;10.40;99.90;;;;;;5031612;28;20034;-80
2023/04/01 03:13:25;;;;;;;14.65;6.82;;;10.30;99.90;;;;;;5015845;28;20405;-80
2023/04/01 03:15:51;;;;;;;12.13;6.85;;;10.40;99.90;;;;;;5016124;28;20018;-77
2023/04/01 03:18:17;;;;;;;14.55;6.82;;;10.40;99.90;;;;;;5027125;28;20320;-76
2023/04/01 03:20:42;;;;;;;12.45;7.45;;;10.40;99.90;;;;;;4994352;28;20025;-77
2023/04/01 03:23:08;;;;;;;12.85;6.72;;;10.40;99.90;;;;;;5027642;28;20401;-78
2023/04/01 03:25:35;;;;;;;11.75;7.70;;;10.40;99.90;;;;;;5009134;28;20030;-77
2023/04/01 03:28:00;;;;;;;14.63;7.68;;;10.40;99.90;;;;;;5041229;28;20045;-75
2023/04/01 03:30:26;;;;;;;13.25;7.43;;;10.30;99.90;;;;;;5009320;28;20117;-76
2023/04/01 03:32:52;;;;;;;14.60;7.63;;;10.30;99.90;;;;;;4992774;28;20108;-77
2023/04/01 03:35:18;;;;;;;10.77;7.47;;;10.30;99.90;;;;;;5001151;28;20044;-79
2023/04/01 03:37:44;;;;;;;11.93;7.88;;;10.40;99.90;;;;;;5009491;28;20030;-79
2023/04/01 03:40:10;;;;;;;18.05;7.95;;;10.40;99.90;;;;;;5013202;28;20034;-78
2023/04/01 03:42:36;;;;;;;14.98;8.48;;;10.30;99.90;;;;;;5011180;28;20563;-78
2023/04/01 03:45:03;;;;;;;18.00;8.05;;;10.30;99.90;;;;;;5010298;28;20042;-77
2023/04/01 03:47:29;;;;;;;13.40;7.45;;;10.30;99.90;;;;;;5009226;28;20037;-79
2023/04/01 03:49:55;;;;;;;11.23;7.78;;;10.30;99.90;;;;;;5008879;28;20101;-78
2023/04/01 03:52:20;;;;;;;15.02;8.50;;;10.30;99.90;;;;;;4991743;28;20057;-78
2023/04/01 03:54:46;;;;;;;12.48;7.72;;;10.40;99.90;;;;;;5009202;28;20030;-76
2023/04/01 03:57:12;;;;;;;16.95;7.93;;;10.40;99.90;;;;;;5010147;28;20037;-76
2023/04/01 03:59:38;;;;;;;14.68;7.72;;;10.30;99.90;;;;;;5007752;28;20113;-76
2023/04/01 04:02:03;;;;;;;15.20;7.50;;;10.30;99.90;;;;;;5011423;28;20441;-78
2023/04/01 04:04:29;;;;;;;13.20;7.38;;;10.30;99.90;;;;;;5011289;28;20064;-79
2023/04/01 04:06:56;;;;;;;15.23;7.45;;;10.30;99.90;;;;;;4992464;28;20061;-79
2023/04/01 04:09:22;;;;;;;10.52;6.88;;;10.30;99.90;;;;;;5016106;28;20560;-82
2023/04/01 04:11:49;;;;;;;12.63;6.97;;;10.30;99.90;;;;;;5016381;28;20022;-79
2023/04/01 04:14:15;;;;;;;12.68;7.35;;;10.30;99.90;;;;;;5027729;28;20125;-78
2023/04/01 04:16:40;;;;;;;11.88;7.25;;;10.30;99.90;;;;;;5027776;28;20310;-77
2023/04/01 04:19:06;;;;;;;14.93;6.55;;;10.30;99.90;;;;;;4993497;28;20037;-78
2023/04/01 04:21:32;;;;;;;9.73;6.80;;;10.30;99.90;;;;;;5008857;28;20341;-78
2023/04/01 04:24:02;;;;;;;13.05;7.38;;;10.30;99.90;;;;;;5008703;28;20030;-78
2023/04/01 04:26:27;;;;;;;10.07;6.85;;;10.30;99.90;;;;;;5012942;28;20076;-76
2023/04/01 04:28:54;;;;;;;12.32;6.82;;;10.30;99.90;;;;;;5008396;28;20072;-76
2023/04/01 04:31:21;;;;;;;13.80;7.60;;;10.20;99.90;;;;;;5003948;28;20040;-77
2023/04/01 04:33:48;;;;;;;13.85;7.38;;;10.30;99.90;;;;;;5007435;28;20394;-79
2023/04/01 04:36:14;;;;;;;12.40;7.85;;;10.30;99.90;;;;;;5009064;28;20029;-77
2023/04/01 04:38:39;;;;;;;11.13;8.27;;;10.20;99.90;;;;;;4993531;28;20315;-76
2023/04/01 04:41:12;;;;;;;15.25;7.90;;;10.20;99.90;;;;;;5008120;28;20497;-78
2023/04/01 04:43:39;;;;;;;12.52;7.53;;;10.30;99.90;;;;;;4994299;28;20022;-75
2023/04/01 04:46:10;;;;;;;13.90;7.90;;;10.30;99.90;;;;;;5013760;28;20095;-80
2023/04/01 04:48:36;;;;;;;11.68;7.57;;;10.20;99.90;;;;;;5011201;28;20033;-80
2023/04/01 04:51:03;;;;;;;13.18;8.40;;;10.20;99.90;;;;;;5005973;28;20513;-80
2023/04/01 04:53:30;;;;;;;15.82;8.93;;;10.20;99.90;;;;;;5008879;28;20087;-76
2023/04/01 04:55:56;;;;;;;11.60;8.57;;;10.20;99.90;;;;;;5011037;28;20029;-82
2023/04/01 04:58:21;;;;;;;14.38;8.20;;;10.20;99.90;;;;;;5012399;28;20030;-76
2023/04/01 05:00:47;;;;;;;14.35;7.60;;;10.10;99.90;;;;;;4990699;28;20157;-78
2023/04/01 05:03:13;;;;;;;12.10;7.75;;;10.10;99.90;;;;;;5005197;28;20032;-76
2023/04/01 05:05:39;;;;;;;16.05;8.40;;;10.20;99.90;;;;;;5003801;28;20510;-76
2023/04/01 05:08:05;;;;;;;15.48;8.07;;;10.10;99.90;;;;;;5007814;28;20037;-78
2023/04/01 05:10:31;;;;;;;17.08;7.43;;;10.10;99.90;;;;;;5004421;28;20030;-77
2023/04/01 05:12:58;;;;;;;12.90;7.65;;;10.10;99.90;;;;;;4987267;28;20030;-76
2023/04/01 05:15:24;;;;;;;13.50;8.05;;;10.10;99.90;;;;;;5030289;28;20477;-79
2023/04/01 05:17:50;;;;;;;10.45;7.65;;;10.20;99.90;;;;;;5018942;28;20033;-78
2023/04/01 05:20:16;;;;;;;11.27;7.40;;;10.20;99.90;;;;;;5007355;28;20037;-77
2023/04/01 05:22:43;;;;;;;10.50;7.55;;;10.20;99.90;;;;;;4991172;28;20037;-77
2023/04/01 05:25:09;;;;;;;12.38;7.47;;;10.20;99.90;;;;;;5007129;28;20034;-75
2023/04/01 05:27:35;;;;;;;13.30;8.13;;;10.10;99.90;;;;;;5007259;28;20064;-76
2023/04/01 05:30:01;;;;;;;17.52;7.40;;;10.10;99.90;;;;;;5006084;28;20220;-77
2023/04/01 05:32:26;;;;;;;11.95;8.10;;;10.10;99.90;;;;;;5010974;28;20029;-78
2023/04/01 05:34:53;;;;;;;11.63;7.30;;;10.00;99.90;;;;;;5004595;28;20025;-80
2023/04/01 05:37:19;;;;;;;4.45;2.47;;;10.00;99.90;;;;;;5016549;28;20053;-76
2023/04/01 05:39:45;;;;;;;2.40;1.25;;;9.70;99.90;;;;;;5007289;28;20053;-75
2023/04/01 05:42:11;;;;;;;2.70;1.05;;;9.40;99.90;;;;;;5003252;28;20258;-76
2023/04/01 05:44:36;;;;;;;2.75;1.23;;;9.30;99.90;;;;;;4988508;28;20021;-76
2023/04/01 05:47:04;;;;;;;1.48;1.00;;;9.20;99.90;;;;;;5005435;28;20476;-77
2023/04/01 05:49:30;;;;;;;1.48;0.90;;;9.00;99.90;;;;;;5009370;28;20029;-77
2023/04/01 05:51:56;;;;;;;1.52;0.93;;;8.80;99.90;;;;;;4991906;28;20037;-77
2023/04/01 05:54:22;;;;;;;1.80;1.17;;;8.70;99.90;;;;;;5005587;28;20030;-75
2023/04/01 05:56:48;;;;;;;1.38;0.90;;;8.70;99.90;;;;;;5015615;28;20041;-78
2023/04/01 05:59:14;;;;;;;1.00;0.90;;;9.10;99.90;;;;;;4991328;28;20494;-76
2023/04/01 06:01:40;;;;;;;1.50;1.02;;;8.70;99.90;;;;;;5001569;28;20106;-77
2023/04/01 06:04:06;;;;;;;2.08;1.25;;;8.60;99.90;;;;;;5005327;28;20026;-76
2023/04/01 06:06:32;;;;;;;1.65;1.17;;;8.50;99.90;;;;;;5004231;28;20045;-75
2023/04/01 06:09:31;;;;;;;2.08;1.10;;;8.40;99.90;;;;;;5022656;28;20095;-78
2023/04/01 06:12:06;;;;;;;2.08;1.20;;;8.40;99.90;;;;;;4991408;28;20552;-76
2023/04/01 06:14:49;;;;;;;1.98;1.23;;;8.30;99.90;;;;;;5007501;28;20022;-75
2023/04/01 06:18:03;;;;;;;1.55;1.15;;;8.20;99.90;;;;;;5006259;28;20026;-77
2023/04/01 06:21:07;;;;;;;1.92;1.33;;;8.20;99.90;;;;;;5007088;28;20033;-78
2023/04/01 06:24:00;;;;;;;1.95;1.17;;;8.10;99.90;;;;;;5037758;28;20124;-78
2023/04/01 06:26:52;;;;;;;3.63;1.50;;;8.10;99.90;;;;;;5006563;28;20140;-79
2023/04/01 06:29:36;;;;;;;;;;;8.10;99.90;;;;;;4992372;28;20485;-78
2023/04/01 06:32:17;;;;;;;3.55;1.60;;;8.00;99.90;;;;;;5005897;28;19918;-79
2023/04/01 06:35:16;;;;;;;2.33;1.58;;;8.10;99.90;;;;;;5034627;28;20037;-77
2023/04/01 06:37:45;;;;;;;2.25;1.17;;;8.10;99.90;;;;;;5046587;28;20034;-80
2023/04/01 06:40:39;;;;;;;3.08;1.48;;;8.00;99.90;;;;;;5010837;28;20036;-78
2023/04/01 06:43:17;;;;;;;1.45;1.10;;;8.00;99.90;;;;;;5013584;28;20029;-77
2023/04/01 06:46:07;;;;;;;1.95;1.20;;;7.90;99.90;;;;;;5009590;28;20544;-77
2023/04/01 06:48:47;;;;;;;1.83;1.17;;;7.80;99.90;;;;;;5011178;28;20037;-78
2023/04/01 06:51:38;;;;;;;1.73;1.05;;;7.80;99.90;;;;;;5007979;28;20145;-79
2023/04/01 06:54:36;;;;;;;1.52;1.15;;;7.80;99.90;;;;;;5053292;28;20033;-78
2023/04/01 06:57:25;;;;;;;1.35;1.05;;;7.80;99.90;;;;;;4994645;28;20153;-78
2023/04/01 06:59:54;;;;;;;1.15;0.90;;;8.60;99.90;;;;;;4992866;28;20100;-76
2023/04/01 07:02:32;;;;;;;1.42;0.88;;;8.10;99.90;;;;;;5005200;28;20119;-79
2023/04/01 07:05:01;;;;;;;1.92;0.95;;;7.80;99.90;;;;;;5005451;28;20529;-80
2023/04/01 07:07:37;;;;;;;1.65;1.10;;;8.40;99.90;;;;;;5033206;28;20057;-80
2023/04/01 07:10:17;;;;;;;1.13;0.82;;;8.10;99.90;;;;;;4995755;28;20061;-79
2023/04/01 07:12:48;;;;;;;1.33;0.90;;;8.00;99.90;;;;;;5002431;28;20659;-76
2023/04/01 07:15:17;;;;;;;1.70;0.82;;;7.90;99.90;;;;;;5006587;28;20021;-76
2023/04/01 07:17:45;;;;;;;1.77;0.93;;;7.80;99.90;;;;;;5006940;28;20278;-78
2023/04/01 07:20:26;;;;;;;1.20;0.77;;;7.70;99.90;;;;;;5015834;28;20040;-79
2023/04/01 07:22:58;;;;;;;1.60;0.70;;;7.70;99.90;;;;;;5024238;28;20040;-81
2023/04/01 07:25:25;;;;;;;1.23;1.00;;;7.60;99.90;;;;;;5020109;28;20486;-82
2023/04/01 07:27:56;;;;;;;1.30;0.70;;;7.50;99.90;;;;;;5022183;28;20029;-78
2023/04/01 07:30:24;;;;;;;1.48;0.80;;;7.40;99.90;;;;;;5021011;28;20069;-77
2023/04/01 07:32:50;;;;;;;1.20;0.80;;;7.40;99.90;;;;;;5043370;28;20030;-76
2023/04/01 07:35:47;;;;;;;1.10;0.70;;;7.50;99.90;;;;;;5018717;28;20041;-79
2023/04/01 07:38:28;;;;;;;1.80;0.93;;;7.40;99.90;;;;;;5006489;28;20034;-81
2023/04/01 07:41:27;;;;;;;1.58;0.82;;;7.40;99.90;;;;;;4998204;28;20038;-78
2023/04/01 07:44:26;;;;;;;1.67;0.85;;;7.30;99.90;;;;;;5005120;28;20026;-77
2023/04/01 07:47:21;;;;;;;1.10;0.70;;;7.30;99.90;;;;;;5001551;28;20830;-74
2023/04/01 07:49:50;;;;;;;1.08;0.70;;;7.40;99.90;;;;;;5009665;28;20042;-77
2023/04/01 07:52:20;;;;;;;1.50;0.85;;;7.30;99.90;;;;;;5008187;28;20061;-75
2023/04/01 07:54:50;;;;;;;2.58;0.77;;;7.30;99.90;;;;;;5007996;28;20030;-74
2023/04/01 07:57:22;;;;;;;2.13;1.10;;;7.30;99.90;;;;;;5006991;28;20044;-76
2023/04/01 07:59:56;;;;;;;1.20;0.90;;;7.30;99.90;;;;;;5007128;28;20153;-75
2023/04/01 08:03:09;;;;;;;1.33;0.70;;;7.30;99.90;;;;;;5007217;28;20092;-76
2023/04/01 08:05:45;;;;;;;1.95;0.90;;;7.20;99.90;;;;;;5000128;28;20046;-75
2023/04/01 08:08:43;;;;;;;2.97;0.70;;;7.20;99.90;;;;;;5009465;28;20022;-76
2023/04/01 08:11:45;;;;;;;1.13;0.75;;;7.30;99.90;;;;;;5007143;28;20113;-76
2023/04/01 08:14:26;;;;;;;1.73;0.70;;;7.30;99.90;;;;;;5008227;28;20032;-77
2023/04/01 08:17:03;;;;;;;1.52;0.70;;;7.30;99.90;;;;;;5017336;28;20030;-75
2023/04/01 08:19:50;;;;;;;1.40;0.75;;;7.30;99.90;;;;;;4998730;28;20080;-75
2023/04/01 08:22:25;;;;;;;1.27;0.80;;;7.20;99.90;;;;;;5007291;28;20447;-76
2023/04/01 08:24:55;;;;;;;0.80;0.60;;;7.20;99.90;;;;;;5002094;28;20218;-75
2023/04/01 08:27:34;;;;;;;0.35;0.30;;;7.20;99.90;;;;;;5003551;28;20555;-74
2023/04/01 08:30:21;;;;;;;2.35;0.98;;;7.20;99.90;;;;;;5009388;28;20030;-77
2023/04/01 08:33:16;;;;;;;0.98;0.60;;;7.30;99.90;;;;;;5027722;28;20109;-77
2023/04/01 08:35:57;;;;;;;1.23;0.80;;;7.20;99.90;;;;;;5003000;28;20478;-74
2023/04/01 08:38:31;;;;;;;1.13;0.60;;;7.20;99.90;;;;;;5019104;28;20034;-72
2023/04/01 08:41:16;;;;;;;1.35;0.50;;;7.20;99.90;;;;;;5000877;28;20405;-75
2023/04/01 08:44:18;;;;;;;1.95;0.70;;;7.20;99.90;;;;;;5005526;28;20486;-77
2023/04/01 08:47:06;;;;;;;1.48;0.75;;;7.20;99.90;;;;;;5008467;28;20435;-71
2023/04/01 08:49:38;;;;;;;1.08;0.60;;;7.20;99.90;;;;;;5008787;28;20079;-71
2023/04/01 08:52:09;;;;;;;0.90;0.50;;;7.30;99.90;;;;;;4989326;28;20644;-72
2023/04/01 08:54:41;;;;;;;1.13;0.55;;;7.30;99.90;;;;;;5006776;28;20092;-72
2023/04/01 08:57:25;;;;;;;2.05;0.90;;;7.30;99.90;;;;;;5032779;28;20029;-71
2023/04/01 09:00:00;;;;;;;2.05;0.77;;;7.90;99.90;;;;;;5007797;28;20030;-74
2023/04/01 09:03:17;;;;;;;2.33;0.52;;;7.80;99.90;;;;;;5008675;28;20100;-75
2023/04/01 09:05:42;;;;;;;1.05;0.60;;;7.50;99.90;;;;;;4927742;28;20039;-72
2023/04/01 09:08:27;;;;;;;2.13;0.70;;;7.30;99.90;;;;;;5008469;28;20033;-74
2023/04/01 09:11:22;;;;;;;0.60;0.45;;;7.20;99.90;;;;;;5006885;28;20030;-77
2023/04/01 09:13:55;;;;;;;1.65;0.70;;;7.20;99.90;;;;;;5008167;28;20398;-74
2023/04/01 09:16:51;;;;;;;1.10;0.75;;;7.20;99.90;;;;;;5008206;28;20124;-75
2023/04/01 09:19:43;;;;;;;0.77;0.68;;;7.20;99.90;;;;;;5002848;28;20029;-77
2023/04/01 09:22:30;;;;;;;1.20;0.50;;;7.20;99.90;;;;;;5005766;28;20026;-72
2023/04/01 09:25:23;;;;;;;0.70;0.52;;;7.20;99.90;;;;;;5004396;28;20042;-74
2023/04/01 09:27:57;;;;;;;0.60;0.50;;;7.30;99.90;;;;;;5001683;28;20048;-72
2023/04/01 09:30:44;;;;;;;0.88;0.50;;;7.30;99.90;;;;;;5008558;28;20129;-71
2023/04/01 09:33:50;;;;;;;2.75;0.60;;;7.30;99.90;;;;;;5007493;28;20022;-73
2023/04/01 09:36:20;;;;;;;1.10;0.50;;;7.20;99.90;;;;;;5003372;28;20034;-71
2023/04/01 09:39:19;;;;;;;2.35;0.70;;;7.30;99.90;;;;;;5023270;28;20022;-76
2023/04/01 09:42:00;;;;;;;1.08;0.70;;;7.40;99.90;;;;;;5009430;28;20124;-72
2023/04/01 09:44:36;;;;;;;1.08;0.60;;;7.50;99.90;;;;;;5006035;28;20030;-77
2023/04/01 09:47:14;;;;;;;1.15;0.68;;;7.40;99.90;;;;;;5002783;28;20029;-73
2023/04/01 09:49:49;;;;;;;0.77;0.50;;;7.50;99.90;;;;;;5003151;28;20478;-77
2023/04/01 09:52:42;;;;;;;1.98;0.80;;;7.50;99.90;;;;;;4987891;28;20480;-75
2023/04/01 09:55:32;;;;;;;1.52;0.60;;;7.50;99.90;;;;;;5005297;28;20026;-76
2023/04/01 09:58:07;;;;;;;1.25;0.60;;;7.50;99.90;;;;;;5006838;28;20088;-76
2023/04/01 10:00:52;;;;;;;0.93;0.60;;;7.50;99.90;;;;;;5022513;28;20327;-76
2023/04/01 10:03:37;;;;;;;0.80;0.50;;;7.50;99.90;;;;;;5006466;28;20026;-75
2023/04/01 10:06:15;;;;;;;0.90;0.50;;;7.60;99.90;;;;;;4991293;28;20184;-74
2023/04/01 10:08:52;;;;;;;2.80;0.60;;;7.70;99.90;;;;;;5004664;28;20088;-75
2023/04/01 10:11:28;;;;;;;1.52;0.75;;;7.70;99.90;;;;;;5044338;28;20014;-75
2023/04/01 10:14:22;;;;;;;8.35;3.20;;;7.70;99.90;;;;;;5004393;28;20042;-73
2023/04/01 10:16:50;;;;;;;1.65;0.70;;;7.70;99.90;;;;;;5028259;28;20042;-77
2023/04/01 10:19:54;;;;;;;0.90;0.70;;;7.60;99.90;;;;;;4996306;28;20057;-77
2023/04/01 10:22:35;;;;;;;0.80;0.52;;;7.50;99.90;;;;;;4991347;28;20087;-79
2023/04/01 10:25:29;;;;;;;2.10;0.90;;;7.40;99.90;;;;;;5008976;28;20030;-78
2023/04/01 10:28:10;;;;;;;1.38;0.70;;;7.40;99.90;;;;;;5009671;28;20061;-74
2023/04/01 10:30:51;;;;;;;1.00;0.60;;;7.40;99.90;;;;;;5007199;28;20040;-73
2023/04/01 10:33:57;;;;;;;0.38;0.30;;;7.40;99.90;;;;;;5005456;28;20176;-73
2023/04/01 10:36:46;;;;;;;0.98;0.40;;;7.40;99.90;;;;;;5009289;28;20125;-73
2023/04/01 10:39:33;;;;;;;0.43;0.30;;;7.50;99.90;;;;;;5020340;28;20087;-73
2023/04/01 10:42:27;;;;;;;0.77;0.57;;;7.60;99.90;;;;;;5018931;28;20140;-76
2023/04/01 10:45:21;;;;;;;0.65;0.47;;;7.50;99.90;;;;;;5018329;28;20052;-73
2023/04/01 10:48:13;;;;;;;1.45;0.45;;;7.40;99.90;;;;;;5020725;28;20022;-73
2023/04/01 10:51:13;;;;;;;1.42;0.50;;;7.50;99.90;;;;;;4998330;28;20409;-74
2023/04/01 10:54:00;;;;;;;1.98;0.50;;;7.40;99.90;;;;;;5008828;28;20346;-73
2023/04/01 10:56:38;;;;;;;0.70;0.30;;;7.30;99.90;;;;;;5005790;28;20175;-77
2023/04/01 10:59:13;;;;;;;0.82;0.40;;;7.20;99.90;;;;;;5007783;28;20033;-74
2023/04/01 11:01:58;;;;;;;0.40;0.30;;;7.20;99.90;;;;;;5006058;28;20030;-75
2023/04/01 11:05:03;;;;;;;0.52;0.40;;;7.30;99.90;;;;;;5009232;28;20053;-73
2023/04/01 11:07:50;;;;;;;0.80;0.57;;;7.40;99.90;;;;;;5001164;28;20057;-74
2023/04/01 11:10:37;;;;;;;0.98;0.60;;;7.50;99.90;;;;;;5004031;28;20658;-74
2023/04/01 11:13:16;;;;;;;1.10;0.47;;;7.20;99.90;;;;;;5011191;28;20033;-74
2023/04/01 11:16:39;;;;;;;3.85;3.03;;;7.20;99.90;;;;;;5006250;28;20498;-74
2023/04/01 11:19:10;;;;;;;856.40;435.35;;;7.20;99.90;;;;;;4991741;28;20064;-74
2023/04/01 11:21:57;;;;;;;63.60;35.83;;;7.20;99.90;;;;;;4992842;28;20087;-75
2023/04/01 11:24:49;;;;;;;14.75;11.45;;;7.20;99.90;;;;;;5007880;28;20076;-76
2023/04/01 11:27:37;;;;;;;3.13;1.77;;;7.20;99.90;;;;;;5001885;28;20409;-75
2023/04/01 11:30:28;;;;;;;0.85;0.60;;;7.30;99.90;;;;;;5033314;28;20091;-74
2023/04/01 11:33:00;;;;;;;1.75;0.80;;;7.30;99.90;;;;;;5009119;28;20034;-74
2023/04/01 11:35:47;;;;;;;2.55;0.90;;;7.30;99.90;;;;;;5008212;28;20026;-73
2023/04/01 11:38:45;;;;;;;1.80;0.90;;;7.30;99.90;;;;;;5001908;28;20490;-74
2023/04/01 11:41:10;;;;;;;1.95;1.00;;;7.20;99.90;;;;;;5012858;28;20034;-73
2023/04/01 11:43:55;;;;;;;2.35;1.35;;;7.20;99.90;;;;;;5011046;28;20067;-73
2023/04/01 11:46:58;;;;;;;4.68;1.17;;;7.20;99.90;;;;;;5031706;28;20457;-74
2023/04/01 11:49:40;;;;;;;1.55;1.10;;;7.30;99.90;;;;;;5008805;28;20052;-78
2023/04/01 11:52:37;;;;;;;1.85;1.30;;;7.20;99.90;;;;;;5005567;28;20042;-75
2023/04/01 11:55:33;;;;;;;1.58;1.10;;;7.20;99.90;;;;;;4995439;28;20053;-74
2023/04/01 11:58:07;;;;;;;2.88;1.63;;;7.10;99.90;;;;;;4992251;28;20112;-75
2023/04/01 12:00:38;;;;;;;2.63;1.88;;;7.10;99.90;;;;;;5009482;28;20018;-76
2023/04/01 12:03:26;;;;;;;7.68;2.63;;;7.00;99.90;;;;;;5039936;28;20030;-75
2023/04/01 12:05:58;;;;;;;6.43;2.25;;;7.00;99.90;;;;;;5026529;28;20022;-74
2023/04/01 12:08:56;;;;;;;4.22;2.00;;;7.10;99.90;;;;;;5030198;28;20048;-72
2023/04/01 12:11:48;;;;;;;4.78;2.28;;;7.10;99.90;;;;;;5009824;28;20105;-75
2023/04/01 12:14:44;;;;;;;4.45;2.10;;;7.00;99.90;;;;;;5005883;28;20155;-73
2023/04/01 12:17:37;;;;;;;4.70;2.40;;;6.90;99.90;;;;;;4999078;28;20048;-74
2023/04/01 12:20:11;;;;;;;4.72;2.47;;;6.80;99.90;;;;;;5010620;28;20081;-76
2023/04/01 12:22:43;;;;;;;5.30;2.80;;;6.80;99.90;;;;;;5006997;28;20580;-72
2023/04/01 12:25:35;;;;;;;9.82;3.50;;;6.80;99.90;;;;;;5009046;28;20034;-74
2023/04/01 12:28:23;;;;;;;4.28;2.53;;;6.90;99.90;;;;;;5006234;28;20026;-72
2023/04/01 12:31:06;;;;;;;6.72;2.83;;;6.80;99.90;;;;;;5013164;28;20108;-72
2023/04/01 12:34:09;;;;;;;4.93;3.05;;;7.50;99.90;;;;;;5001532;28;20026;-72
2023/04/01 12:37:04;;;;;;;9.75;4.32;;;7.20;99.90;;;;;;5001733;28;20042;-72
2023/04/01 12:39:35;;;;;;;4.78;2.88;;;7.10;99.90;;;;;;5031001;28;20053;-75
2023/04/01 12:42:29;;;;;;;4.93;2.72;;;7.50;99.90;;;;;;5008635;28;20503;-71
2023/04/01 12:45:10;;;;;;;5.88;2.95;;;7.20;99.90;;;;;;5035486;28;20497;-71
2023/04/01 12:48:01;;;;;;;4.93;2.70;;;7.10;99.90;;;;;;5033286;28;20165;-71
2023/04/01 12:51:05;;;;;;;6.78;2.85;;;7.00;99.90;;;;;;5005387;28;20030;-71
2023/04/01 12:54:01;;;;;;;5.75;3.00;;;6.90;99.90;;;;;;5009180;28;20037;-73
2023/04/01 12:56:39;;;;;;;7.55;3.42;;;6.90;99.90;;;;;;5005009;28;20028;-75
2023/04/01 12:59:54;;;;;;;5.47;2.92;;;6.90;99.90;;;;;;5006405;28;20108;-71
2023/04/01 13:02:38;;;;;;;5.05;2.50;;;7.00;99.90;;;;;;4987300;28;20037;-74
2023/04/01 13:05:43;;;;;;;5.20;2.92;;;6.70;99.90;;;;;;5002689;28;20030;-73
2023/04/01 13:08:52;;;;;;;4.00;2.78;;;6.70;99.90;;;;;;5007975;28;20133;-71
2023/04/01 13:11:44;;;;;;;3.13;2.10;;;6.60;99.90;;;;;;4991056;28;20038;-73
2023/04/01 13:14:27;;;;;;;5.75;2.70;;;6.70;99.90;;;;;;5000207;28;20300;-71
2023/04/01 13:17:22;;;;;;;4.28;2.90;;;7.40;99.90;;;;;;5006557;28;20371;-75
2023/04/01 13:19:54;;;;;;;5.97;2.53;;;7.20;99.90;;;;;;5006875;28;20033;-71
2023/04/01 13:22:55;;;;;;;6.15;3.22;;;7.10;99.90;;;;;;5012940;28;20458;-72
2023/04/01 13:25:44;;;;;;;5.85;2.78;;;7.00;99.90;;;;;;5006897;28;20034;-73
2023/04/01 13:28:25;;;;;;;3.42;2.05;;;6.90;99.90;;;;;;5009091;28;20034;-71
2023/04/01 13:31:20;;;;;;;4.95;2.70;;;6.70;99.90;;;;;;5007608;28;20033;-71
2023/04/01 13:34:00;;;;;;;4.18;2.17;;;6.80;99.90;;;;;;5009069;28;20049;-74
2023/04/01 13:37:09;;;;;;;5.38;2.38;;;6.70;99.90;;;;;;4989422;28;20032;-77
2023/04/01 13:39:46;;;;;;;4.57;2.45;;;6.70;99.90;;;;;;5007950;28;20022;-74
2023/04/01 13:42:33;;;;;;;4.68;2.33;;;6.60;99.90;;;;;;4987632;28;20030;-79